createdAt,value
2023-04-19T00:00:43.463Z,6.97
2023-04-19T00:01:52.726Z,7.30
2023-04-19T00:02:55.097Z,7.95
2023-04-19T00:03:57.397Z,6.93
2023-04-19T00:04:59.472Z,8.00
2023-04-19T00:06:02.738Z,7.72
2023-04-19T00:08:06.771Z,8.07
2023-04-19T00:09:09.494Z,6.93
2023-04-19T00:10:11.727Z,6.93
2023-04-19T00:11:13.633Z,8.85
2023-04-19T00:12:15.640Z,8.18
2023-04-19T00:13:17.929Z,9.23
2023-04-19T00:14:20.492Z,8.32
2023-04-19T00:15:22.402Z,8.30
2023-04-19T00:16:24.304Z,7.97
2023-04-19T00:17:27.603Z,6.28
2023-04-19T00:18:29.930Z,8.13
2023-04-19T00:19:31.776Z,7.60
2023-04-19T00:20:33.778Z,6.35
2023-04-19T00:21:35.720Z,8.43
2023-04-19T00:22:37.929Z,7.82
2023-04-19T00:23:39.814Z,7.40
2023-04-19T00:24:41.730Z,8.63
2023-04-19T00:25:43.628Z,7.97
2023-04-19T00:26:45.859Z,9.82
2023-04-19T00:27:47.678Z,10.27
2023-04-19T00:28:49.600Z,7.72
2023-04-19T00:29:51.681Z,6.43
2023-04-19T00:30:53.977Z,8.65
2023-04-19T00:31:55.927Z,6.70
2023-04-19T00:32:57.971Z,6.95
2023-04-19T00:33:59.918Z,6.90
2023-04-19T00:35:02.151Z,8.65
2023-04-19T00:36:04.341Z,7.78
2023-04-19T00:37:06.212Z,7.47
2023-04-19T00:38:08.591Z,8.60
2023-04-19T00:40:12.776Z,6.72
2023-04-19T00:41:14.739Z,6.68
2023-04-19T00:42:16.618Z,8.43
2023-04-19T00:43:19.946Z,6.10
2023-04-19T00:44:21.865Z,6.55
2023-04-19T00:45:23.913Z,7.07
2023-04-19T00:46:26.649Z,6.30
2023-04-19T00:47:29.151Z,7.10
2023-04-19T00:48:31.387Z,7.50
2023-04-19T00:49:33.516Z,6.85
2023-04-19T00:50:36.327Z,6.43
2023-04-19T00:51:38.795Z,6.68
2023-04-19T00:52:40.826Z,5.88
2023-04-19T00:53:43.610Z,5.85
2023-04-19T00:54:45.849Z,9.55
2023-04-19T00:55:51.152Z,6.13
2023-04-19T00:56:53.356Z,7.32
2023-04-19T00:57:55.392Z,6.88
2023-04-19T00:58:57.390Z,6.32
2023-04-19T00:59:59.757Z,6.50
2023-04-19T01:01:01.700Z,6.32
2023-04-19T01:02:03.954Z,6.63
2023-04-19T01:03:07.124Z,6.88
2023-04-19T01:04:09.831Z,7.97
2023-04-19T01:05:12.015Z,6.28
2023-04-19T01:06:14.941Z,7.20
2023-04-19T01:08:19.399Z,5.90
2023-04-19T01:09:21.425Z,8.13
2023-04-19T01:10:23.378Z,6.80
2023-04-19T01:11:26.326Z,6.38
2023-04-19T01:12:28.605Z,7.32
2023-04-19T01:13:30.497Z,7.43
2023-04-19T01:14:32.421Z,8.02
2023-04-19T01:15:34.410Z,7.95
2023-04-19T01:16:36.759Z,8.30
2023-04-19T01:17:39.071Z,7.55
2023-04-19T01:18:41.431Z,8.88
2023-04-19T01:19:43.376Z,7.88
2023-04-19T01:20:45.638Z,8.00
2023-04-19T01:21:47.605Z,8.55
2023-04-19T01:22:49.589Z,7.72
2023-04-19T01:23:52.495Z,6.78
2023-04-19T01:24:54.822Z,8.38
2023-04-19T01:25:56.770Z,6.03
2023-04-19T01:26:58.730Z,6.22
2023-04-19T01:28:00.944Z,7.85
2023-04-19T01:29:03.427Z,7.13
2023-04-19T01:30:06.455Z,8.85
2023-04-19T01:31:08.340Z,7.90
2023-04-19T01:32:10.403Z,7.97
2023-04-19T01:33:12.645Z,6.70
2023-04-19T01:34:14.872Z,6.82
2023-04-19T01:35:17.031Z,7.22
2023-04-19T01:36:19.066Z,6.88
2023-04-19T01:37:21.314Z,6.22
2023-04-19T01:38:23.174Z,6.80
2023-04-19T01:39:26.551Z,8.18
2023-04-19T01:40:28.513Z,6.20
2023-04-19T01:41:31.171Z,7.93
2023-04-19T01:42:33.266Z,9.45
2023-04-19T01:43:35.531Z,7.88
2023-04-19T01:44:37.402Z,7.80
2023-04-19T01:45:39.604Z,6.65
2023-04-19T01:46:42.925Z,9.32
2023-04-19T01:47:45.002Z,8.15
2023-04-19T01:48:47.025Z,6.20
2023-04-19T01:49:49.225Z,6.05
2023-04-19T01:50:51.112Z,9.07
2023-04-19T01:51:53.194Z,7.03
2023-04-19T01:52:55.155Z,8.65
2023-04-19T01:53:58.403Z,11.82
2023-04-19T01:55:00.418Z,9.50
2023-04-19T01:56:02.744Z,7.03
2023-04-19T01:57:04.627Z,7.13
2023-04-19T01:58:07.459Z,7.88
2023-04-19T01:59:09.505Z,6.72
2023-04-19T02:00:12.093Z,6.72
2023-04-19T02:01:14.107Z,8.35
2023-04-19T02:02:16.537Z,9.48
2023-04-19T02:03:18.606Z,7.57
2023-04-19T02:04:22.324Z,7.28
2023-04-19T02:05:24.263Z,8.60
2023-04-19T02:06:27.156Z,8.48
2023-04-19T02:07:29.202Z,7.70
2023-04-19T02:08:31.285Z,7.70
2023-04-19T02:09:36.817Z,6.55
2023-04-19T02:10:39.010Z,6.85
2023-04-19T02:11:41.157Z,9.30
2023-04-19T02:12:43.283Z,9.35
2023-04-19T02:13:45.247Z,8.50
2023-04-19T02:14:47.499Z,7.13
2023-04-19T02:15:49.552Z,7.88
2023-04-19T02:16:51.595Z,8.30
2023-04-19T02:17:53.664Z,6.20
2023-04-19T02:18:55.952Z,7.30
2023-04-19T02:19:58.034Z,8.93
2023-04-19T02:21:00.729Z,8.18
2023-04-19T02:22:02.887Z,8.77
2023-04-19T02:23:05.260Z,6.97
2023-04-19T02:24:07.552Z,6.88
2023-04-19T02:25:09.608Z,7.72
2023-04-19T02:26:11.723Z,7.07
2023-04-19T02:27:14.066Z,7.38
2023-04-19T02:28:15.968Z,7.93
2023-04-19T02:29:18.779Z,7.75
2023-04-19T02:30:20.945Z,7.28
2023-04-19T02:31:23.548Z,7.40
2023-04-19T02:32:25.594Z,11.95
2023-04-19T02:33:29.003Z,8.80
2023-04-19T02:34:30.926Z,9.55
2023-04-19T02:35:33.347Z,10.80
2023-04-19T02:36:35.444Z,6.95
2023-04-19T02:37:37.300Z,8.02
2023-04-19T02:38:39.247Z,14.18
2023-04-19T02:39:42.893Z,8.55
2023-04-19T02:40:44.794Z,8.50
2023-04-19T02:41:46.915Z,7.32
2023-04-19T02:42:49.041Z,6.95
2023-04-19T02:43:51.290Z,7.72
2023-04-19T02:44:53.168Z,7.47
2023-04-19T02:45:55.244Z,7.43
2023-04-19T02:46:57.880Z,8.38
2023-04-19T02:48:00.362Z,7.88
2023-04-19T02:49:02.413Z,6.88
2023-04-19T02:50:04.720Z,7.70
2023-04-19T02:51:06.706Z,7.57
2023-04-19T02:52:09.146Z,7.53
2023-04-19T02:53:11.132Z,8.05
2023-04-19T02:54:13.857Z,7.78
2023-04-19T02:55:15.972Z,8.55
2023-04-19T02:56:18.263Z,7.55
2023-04-19T02:57:20.234Z,8.40
2023-04-19T02:58:22.223Z,9.57
2023-04-19T02:59:24.452Z,6.70
2023-04-19T03:00:26.851Z,8.75
2023-04-19T03:01:28.973Z,8.10
2023-04-19T03:02:30.999Z,7.28
2023-04-19T03:03:33.001Z,6.82
2023-04-19T03:04:36.691Z,7.97
2023-04-19T03:05:38.683Z,7.97
2023-04-19T03:06:42.128Z,7.15
2023-04-19T03:07:44.700Z,8.85
2023-04-19T03:08:47.013Z,8.45
2023-04-19T03:09:48.929Z,8.45
2023-04-19T03:10:50.892Z,7.97
2023-04-19T03:11:53.450Z,7.47
2023-04-19T03:12:55.803Z,8.43
2023-04-19T03:13:57.750Z,6.70
2023-04-19T03:14:59.741Z,7.53
2023-04-19T03:16:01.955Z,8.82
2023-04-19T03:17:04.333Z,6.95
2023-04-19T03:18:06.407Z,7.05
2023-04-19T03:19:08.490Z,6.85
2023-04-19T03:20:12.156Z,6.80
2023-04-19T03:21:14.398Z,7.88
2023-04-19T03:22:16.289Z,10.48
2023-04-19T03:23:18.167Z,9.15
2023-04-19T03:24:23.564Z,8.52
2023-04-19T03:25:26.279Z,8.98
2023-04-19T03:26:28.196Z,7.97
2023-04-19T03:27:30.392Z,8.95
2023-04-19T03:28:32.297Z,8.80
2023-04-19T03:29:34.618Z,6.95
2023-04-19T03:30:36.539Z,8.20
2023-04-19T03:31:38.595Z,7.10
2023-04-19T03:32:40.768Z,8.43
2023-04-19T03:33:43.033Z,7.80
2023-04-19T03:34:44.956Z,8.75
2023-04-19T03:35:46.857Z,7.50
2023-04-19T03:36:48.766Z,9.35
2023-04-19T03:37:50.989Z,7.25
2023-04-19T03:38:53.024Z,9.38
2023-04-19T03:39:55.101Z,11.60
2023-04-19T03:40:57.904Z,10.23
2023-04-19T03:42:00.113Z,8.02
2023-04-19T03:43:01.976Z,7.68
2023-04-19T03:44:04.077Z,7.57
2023-04-19T03:45:06.327Z,7.55
2023-04-19T03:46:08.923Z,5.68
2023-04-19T03:47:10.863Z,8.18
2023-04-19T03:48:12.779Z,8.68
2023-04-19T03:49:14.713Z,9.40
2023-04-19T03:50:17.024Z,5.80
2023-04-19T03:51:19.294Z,7.22
2023-04-19T03:52:21.211Z,7.68
2023-04-19T03:53:23.092Z,6.53
2023-04-19T03:54:25.577Z,6.22
2023-04-19T03:55:27.583Z,5.90
2023-04-19T03:56:29.555Z,6.18
2023-04-19T03:57:31.577Z,6.38
2023-04-19T03:58:34.187Z,7.30
2023-04-19T03:59:36.144Z,8.85
2023-04-19T04:00:38.127Z,7.20
2023-04-19T04:01:42.591Z,5.53
2023-04-19T04:02:45.432Z,6.25
2023-04-19T04:03:48.092Z,6.18
2023-04-19T04:05:55.612Z,6.95
2023-04-19T04:06:57.841Z,6.25
2023-04-19T04:07:59.680Z,5.28
2023-04-19T04:09:01.917Z,6.57
2023-04-19T04:10:04.154Z,5.72
2023-04-19T04:11:06.565Z,5.70
2023-04-19T04:12:08.426Z,6.85
2023-04-19T04:13:10.566Z,5.55
2023-04-19T04:14:12.475Z,6.25
2023-04-19T04:15:14.915Z,6.57
2023-04-19T04:16:16.952Z,8.00
2023-04-19T04:17:19.669Z,8.52
2023-04-19T04:18:21.652Z,7.43
2023-04-19T04:19:24.005Z,7.45
2023-04-19T04:20:26.002Z,5.32
2023-04-19T04:21:28.428Z,5.00
2023-04-19T04:22:30.337Z,6.80
2023-04-19T04:23:33.962Z,11.23
2023-04-19T04:24:43.043Z,7.57
2023-04-19T04:25:44.974Z,6.53
2023-04-19T04:26:46.892Z,6.72
2023-04-19T04:27:51.882Z,6.40
2023-04-19T04:28:54.313Z,5.85
2023-04-19T04:29:57.009Z,4.93
2023-04-19T04:31:00.492Z,4.75
2023-04-19T04:32:04.329Z,5.15
2023-04-19T04:33:06.520Z,5.68
2023-04-19T04:34:09.494Z,7.53
2023-04-19T04:35:11.630Z,7.80
2023-04-19T04:36:14.030Z,6.38
2023-04-19T04:37:16.495Z,6.68
2023-04-19T04:38:24.602Z,7.40
2023-04-19T04:39:27.226Z,7.90
2023-04-19T04:40:29.573Z,5.38
2023-04-19T04:41:31.689Z,5.72
2023-04-19T04:42:33.768Z,6.10
2023-04-19T04:43:35.696Z,6.32
2023-04-19T04:44:39.168Z,9.70
2023-04-19T04:45:42.220Z,6.25
2023-04-19T04:46:44.223Z,7.28
2023-04-19T04:47:48.901Z,5.25
2023-04-19T04:48:52.765Z,8.18
2023-04-19T04:49:54.791Z,7.80
2023-04-19T04:50:56.730Z,5.70
2023-04-19T04:51:58.958Z,5.68
2023-04-19T04:53:01.235Z,6.10
2023-04-19T04:54:03.552Z,6.82
2023-04-19T04:55:06.352Z,5.10
2023-04-19T04:57:10.543Z,7.28
2023-04-19T04:58:12.558Z,6.88
2023-04-19T04:59:14.420Z,5.68
2023-04-19T05:00:16.774Z,9.00
2023-04-19T05:01:20.779Z,7.85
2023-04-19T05:02:24.241Z,6.60
2023-04-19T05:03:27.440Z,6.38
2023-04-19T05:04:29.426Z,7.03
2023-04-19T05:05:31.907Z,7.95
2023-04-19T05:06:33.768Z,7.97
2023-04-19T05:07:35.868Z,8.15
2023-04-19T05:08:37.819Z,5.97
2023-04-19T05:09:40.062Z,6.55
2023-04-19T05:10:42.051Z,5.68
2023-04-19T05:11:44.040Z,7.93
2023-04-19T05:12:45.905Z,7.05
2023-04-19T05:13:48.217Z,7.13
2023-04-19T05:14:50.313Z,5.63
2023-04-19T05:15:52.399Z,6.60
2023-04-19T05:16:54.465Z,7.15
2023-04-19T05:17:56.838Z,7.13
2023-04-19T05:18:58.806Z,6.15
2023-04-19T05:20:00.846Z,7.15
2023-04-19T05:21:02.844Z,7.93
2023-04-19T05:22:05.302Z,5.25
2023-04-19T05:23:08.427Z,10.13
2023-04-19T05:24:10.509Z,6.82
2023-04-19T05:25:12.566Z,7.00
2023-04-19T05:26:15.757Z,7.43
2023-04-19T05:27:17.809Z,5.00
2023-04-19T05:28:19.778Z,7.38
2023-04-19T05:29:21.638Z,7.72
2023-04-19T05:30:24.008Z,6.50
2023-04-19T05:31:26.594Z,8.77
2023-04-19T05:32:30.057Z,5.85
2023-04-19T05:33:32.015Z,5.75
2023-04-19T05:34:36.658Z,5.57
2023-04-19T05:35:38.547Z,8.55
2023-04-19T05:36:40.422Z,8.10
2023-04-19T05:37:42.364Z,10.07
2023-04-19T05:38:44.873Z,6.50
2023-04-19T05:39:46.829Z,8.07
2023-04-19T05:40:48.736Z,6.72
2023-04-19T05:41:50.987Z,6.05
2023-04-19T05:42:53.289Z,6.50
2023-04-19T05:43:55.224Z,6.53
2023-04-19T05:44:57.426Z,7.45
2023-04-19T05:45:59.413Z,6.72
2023-04-19T05:47:01.777Z,6.80
2023-04-19T05:48:03.810Z,6.70
2023-04-19T05:49:05.952Z,6.47
2023-04-19T05:50:08.143Z,7.10
2023-04-19T05:51:10.439Z,8.43
2023-04-19T05:52:12.285Z,6.82
2023-04-19T05:53:14.162Z,7.10
2023-04-19T05:54:17.168Z,7.22
2023-04-19T05:55:19.724Z,7.03
2023-04-19T05:56:21.695Z,8.95
2023-04-19T05:57:23.594Z,7.30
2023-04-19T05:58:26.252Z,13.98
2023-04-19T05:59:28.599Z,7.47
2023-04-19T06:00:30.978Z,7.68
2023-04-19T06:01:33.058Z,7.03
2023-04-19T06:02:35.153Z,6.28
2023-04-19T06:03:37.756Z,6.45
2023-04-19T06:04:39.986Z,7.82
2023-04-19T06:05:42.292Z,6.15
2023-04-19T06:06:44.283Z,9.25
2023-04-19T06:07:54.374Z,7.05
2023-04-19T06:08:57.333Z,5.57
2023-04-19T06:09:59.328Z,7.80
2023-04-19T06:11:08.439Z,7.22
2023-04-19T06:12:22.589Z,6.32
2023-04-19T06:13:24.524Z,6.65
2023-04-19T06:14:28.302Z,7.88
2023-04-19T06:15:31.151Z,6.03
2023-04-19T06:16:33.466Z,9.32
2023-04-19T06:17:35.738Z,6.15
2023-04-19T06:18:37.738Z,7.47
2023-04-19T06:19:39.603Z,5.35
2023-04-19T06:20:42.361Z,5.50
2023-04-19T06:21:44.350Z,11.20
2023-04-19T06:22:46.533Z,5.85
2023-04-19T06:23:48.407Z,7.15
2023-04-19T06:24:50.691Z,9.40
2023-04-19T06:25:52.692Z,6.97
2023-04-19T06:26:54.680Z,6.15
2023-04-19T06:27:56.552Z,7.07
2023-04-19T06:28:58.917Z,8.20
2023-04-19T06:30:01.283Z,7.03
2023-04-19T06:31:03.281Z,7.25
2023-04-19T06:32:05.364Z,7.40
2023-04-19T06:33:07.638Z,7.45
2023-04-19T06:34:11.237Z,6.88
2023-04-19T06:35:13.503Z,7.05
2023-04-19T06:36:15.519Z,6.43
2023-04-19T06:37:17.741Z,5.47
2023-04-19T06:38:19.670Z,7.95
2023-04-19T06:39:21.649Z,7.07
2023-04-19T06:40:23.624Z,5.25
2023-04-19T06:41:26.583Z,5.88
2023-04-19T06:42:28.574Z,6.07
2023-04-19T06:43:30.618Z,6.13
2023-04-19T06:44:32.543Z,6.25
2023-04-19T06:45:35.070Z,5.70
2023-04-19T06:46:37.139Z,7.03
2023-04-19T06:47:39.165Z,7.93
2023-04-19T06:48:41.174Z,6.88
2023-04-19T06:49:43.534Z,6.25
2023-04-19T06:50:45.400Z,6.00
2023-04-19T06:51:47.404Z,6.93
2023-04-19T06:52:49.323Z,8.15
2023-04-19T06:53:51.595Z,6.10
2023-04-19T06:54:53.529Z,6.50
2023-04-19T06:56:03.152Z,7.65
2023-04-19T06:57:05.304Z,5.65
2023-04-19T06:58:10.956Z,7.97
2023-04-19T06:59:17.534Z,5.50
2023-04-19T07:00:19.653Z,10.27
2023-04-19T07:01:21.748Z,5.07
2023-04-19T07:02:24.361Z,5.78
2023-04-19T07:03:26.529Z,6.20
2023-04-19T07:04:28.711Z,7.05
2023-04-19T07:05:31.736Z,6.35
2023-04-19T07:06:37.859Z,7.60
2023-04-19T07:07:41.422Z,6.70
2023-04-19T07:09:50.976Z,6.70
2023-04-19T07:10:53.825Z,6.03
2023-04-19T07:11:56.005Z,6.32
2023-04-19T07:12:57.939Z,5.03
2023-04-19T07:14:02.365Z,6.47
2023-04-19T07:15:05.023Z,5.93
2023-04-19T07:16:08.319Z,6.20
2023-04-19T07:17:10.359Z,5.00
2023-04-19T07:18:15.092Z,5.38
2023-04-19T07:19:19.572Z,5.30
2023-04-19T07:20:21.863Z,5.60
2023-04-19T07:21:25.492Z,5.32
2023-04-19T07:22:27.441Z,4.85
2023-04-19T07:23:31.103Z,7.35
2023-04-19T07:24:32.989Z,7.05
2023-04-19T07:25:34.874Z,6.85
2023-04-19T07:26:36.848Z,6.60
2023-04-19T07:27:39.090Z,5.38
2023-04-19T07:28:41.054Z,5.43
2023-04-19T07:29:42.986Z,6.18
2023-04-19T07:30:46.319Z,4.97
2023-04-19T07:31:48.782Z,7.72
2023-04-19T07:32:52.117Z,5.43
2023-04-19T07:33:54.678Z,6.60
2023-04-19T07:34:56.789Z,5.70
2023-04-19T07:35:59.012Z,7.88
2023-04-19T07:37:00.989Z,5.40
2023-04-19T07:38:03.099Z,7.78
2023-04-19T07:39:05.174Z,5.25
2023-04-19T07:40:08.398Z,5.88
2023-04-19T07:41:10.605Z,9.82
2023-04-19T07:42:12.495Z,5.40
2023-04-19T07:43:14.647Z,5.97
2023-04-19T07:44:17.222Z,7.03
2023-04-19T07:45:19.239Z,6.13
2023-04-19T07:46:21.339Z,7.82
2023-04-19T07:47:23.248Z,4.65
2023-04-19T07:48:25.532Z,7.70
2023-04-19T07:49:27.462Z,5.10
2023-04-19T07:50:29.411Z,8.20
2023-04-19T07:51:31.764Z,6.03
2023-04-19T07:52:34.107Z,7.18
2023-04-19T07:53:36.079Z,6.45
2023-04-19T07:54:39.516Z,5.50
2023-04-19T07:55:45.381Z,6.90
2023-04-19T07:56:47.747Z,7.30
2023-04-19T07:57:52.626Z,6.32
2023-04-19T07:59:06.865Z,7.68
2023-04-19T08:00:11.284Z,4.63
2023-04-19T08:02:16.805Z,7.40
2023-04-19T08:03:19.027Z,6.18
2023-04-19T08:04:23.956Z,5.57
2023-04-19T08:05:27.736Z,7.20
2023-04-19T08:06:30.751Z,6.63
2023-04-19T08:07:32.739Z,4.97
2023-04-19T08:08:35.639Z,6.82
2023-04-19T08:09:38.231Z,5.38
2023-04-19T08:10:40.191Z,6.45
2023-04-19T08:11:43.353Z,5.38
2023-04-19T08:12:57.453Z,6.18
2023-04-19T08:14:15.172Z,5.80
2023-04-19T08:16:05.164Z,6.95
2023-04-19T08:17:51.094Z,4.97
2023-04-19T08:18:53.323Z,6.00
2023-04-19T08:19:55.314Z,6.32
2023-04-19T08:20:57.237Z,5.78
2023-04-19T08:21:59.714Z,5.40
2023-04-19T08:23:10.268Z,4.72
2023-04-19T08:24:16.478Z,5.40
2023-04-19T08:25:18.556Z,6.72
2023-04-19T08:26:21.033Z,5.38
2023-04-19T08:27:23.024Z,6.40
2023-04-19T08:28:24.991Z,9.65
2023-04-19T08:29:26.954Z,8.43
2023-04-19T08:30:29.272Z,5.57
2023-04-19T08:31:31.533Z,4.68
2023-04-19T08:32:33.548Z,6.15
2023-04-19T08:33:35.812Z,6.72
2023-04-19T08:34:39.314Z,4.65
2023-04-19T08:35:42.077Z,7.50
2023-04-19T08:36:51.898Z,5.20
2023-04-19T08:38:03.334Z,5.25
2023-04-19T08:39:14.757Z,5.25
2023-04-19T08:40:19.906Z,4.93
2023-04-19T08:41:23.430Z,5.50
2023-04-19T08:42:35.495Z,6.45
2023-04-19T08:43:41.647Z,4.78
2023-04-19T08:44:59.605Z,6.18
2023-04-19T08:46:08.433Z,5.20
2023-04-19T08:47:20.223Z,5.43
2023-04-19T08:48:31.072Z,5.28
2023-04-19T08:49:40.778Z,5.28
2023-04-19T08:50:56.438Z,6.18
2023-04-19T08:52:13.011Z,5.82
2023-04-19T08:53:24.858Z,4.30
2023-04-19T08:54:29.825Z,4.97
2023-04-19T08:55:32.379Z,6.47
2023-04-19T08:57:37.759Z,4.60
2023-04-19T08:58:57.058Z,6.63
2023-04-19T09:00:06.014Z,4.90
2023-04-19T09:01:12.900Z,6.65
2023-04-19T09:02:20.110Z,4.38
2023-04-19T09:03:22.533Z,4.20
2023-04-19T09:04:35.507Z,4.38
2023-04-19T09:05:39.083Z,4.03
2023-04-19T09:06:41.803Z,4.15
2023-04-19T09:08:46.220Z,5.10
2023-04-19T09:10:05.971Z,4.00
2023-04-19T09:11:08.227Z,4.20
2023-04-19T09:12:18.163Z,4.55
2023-04-19T09:13:20.452Z,4.13
2023-04-19T09:14:23.760Z,4.22
2023-04-19T09:15:40.045Z,5.65
2023-04-19T09:16:43.301Z,4.20
2023-04-19T09:18:03.281Z,4.25
2023-04-19T09:19:15.550Z,4.18
2023-04-19T09:20:37.227Z,3.38
2023-04-19T09:21:40.102Z,4.35
2023-04-19T09:22:42.338Z,4.75
2023-04-19T09:23:48.312Z,4.65
2023-04-19T09:27:06.686Z,6.28
2023-04-19T09:28:11.277Z,5.90
2023-04-19T09:29:17.690Z,6.47
2023-04-19T09:30:32.349Z,3.92
2023-04-19T09:32:47.909Z,6.65
2023-04-19T09:33:50.046Z,4.30
2023-04-19T09:34:59.000Z,6.38
2023-04-19T09:36:02.092Z,5.53
2023-04-19T09:37:21.530Z,3.60
2023-04-19T09:38:47.958Z,4.70
2023-04-19T09:40:53.000Z,3.97
2023-04-19T09:41:55.289Z,3.22
2023-04-19T09:43:08.713Z,4.43
2023-04-19T09:45:30.668Z,5.82
2023-04-19T09:46:37.377Z,6.20
2023-04-19T09:47:39.630Z,5.10
2023-04-19T09:48:41.608Z,5.55
2023-04-19T09:49:49.124Z,4.15
2023-04-19T09:51:04.578Z,3.63
2023-04-19T09:52:13.660Z,5.35
2023-04-19T09:53:15.760Z,7.28
2023-04-19T09:54:20.624Z,4.10
2023-04-19T09:55:27.787Z,6.35
2023-04-19T09:56:30.832Z,4.20
2023-04-19T09:57:34.185Z,4.00
2023-04-19T09:59:41.526Z,3.40
2023-04-19T10:00:49.056Z,3.85
2023-04-19T10:01:56.594Z,3.90
2023-04-19T10:02:59.144Z,2.55
2023-04-19T10:04:14.830Z,2.85
2023-04-19T10:05:25.708Z,3.25
2023-04-19T10:06:42.376Z,3.53
2023-04-19T10:07:50.728Z,3.67
2023-04-19T10:08:56.171Z,5.07
2023-04-19T10:10:11.852Z,3.30
2023-04-19T10:11:27.643Z,3.40
2023-04-19T10:12:52.348Z,2.42
2023-04-19T10:13:57.975Z,2.40
2023-04-19T10:14:59.960Z,4.78
2023-04-19T10:16:15.768Z,3.90
2023-04-19T10:17:21.708Z,2.88
2023-04-19T10:19:27.549Z,4.88
2023-04-19T10:20:55.744Z,3.53
2023-04-19T10:21:58.403Z,3.30
2023-04-19T10:23:00.726Z,5.03
2023-04-19T10:24:03.655Z,2.55
2023-04-19T10:25:28.672Z,3.53
2023-04-19T10:26:31.189Z,2.35
2023-04-19T10:27:35.065Z,2.17
2023-04-19T10:28:38.339Z,2.92
2023-04-19T10:29:52.323Z,2.05
2023-04-19T10:31:04.282Z,2.17
2023-04-19T10:32:06.683Z,2.00
2023-04-19T10:33:08.724Z,2.45
2023-04-19T10:34:12.878Z,1.67
2023-04-19T10:35:31.617Z,2.45
2023-04-19T10:36:33.977Z,2.42
2023-04-19T10:37:41.085Z,3.25
2023-04-19T10:38:52.488Z,3.00
2023-04-19T10:39:54.725Z,2.50
2023-04-19T10:41:04.094Z,3.10
2023-04-19T10:42:06.115Z,3.42
2023-04-19T10:43:11.203Z,3.00
2023-04-19T10:44:13.098Z,2.38
2023-04-19T10:45:37.419Z,2.83
2023-04-19T10:46:42.519Z,4.53
2023-04-19T10:47:45.024Z,4.65
2023-04-19T10:48:54.120Z,3.47
2023-04-19T10:49:56.428Z,2.70
2023-04-19T10:50:59.622Z,2.85
2023-04-19T10:52:01.654Z,3.65
2023-04-19T10:53:40.958Z,4.25
2023-04-19T10:54:43.123Z,4.53
2023-04-19T10:55:51.710Z,6.43
2023-04-19T10:57:02.912Z,6.07
2023-04-19T10:58:06.826Z,4.57
2023-04-19T10:59:21.681Z,3.75
2023-04-19T11:00:25.969Z,4.68
2023-04-19T11:01:45.929Z,4.20
2023-04-19T11:02:48.431Z,5.13
2023-04-19T11:03:52.172Z,4.90
2023-04-19T11:04:54.298Z,3.72
2023-04-19T11:06:17.204Z,6.20
2023-04-19T11:07:21.542Z,6.55
2023-04-19T11:08:23.987Z,4.38
2023-04-19T11:09:27.678Z,4.88
2023-04-19T11:10:31.431Z,4.80
2023-04-19T11:11:35.926Z,4.88
2023-04-19T11:12:38.213Z,6.88
2023-04-19T11:13:43.091Z,3.72
2023-04-19T11:14:51.591Z,5.00
2023-04-19T11:15:53.869Z,5.00
2023-04-19T11:16:55.916Z,5.57
2023-04-19T11:18:12.022Z,4.35
2023-04-19T11:19:18.680Z,6.03
2023-04-19T11:20:24.409Z,5.95
2023-04-19T11:21:30.394Z,8.88
2023-04-19T11:22:33.187Z,5.43
2023-04-19T11:23:35.072Z,5.40
2023-04-19T11:24:37.452Z,5.15
2023-04-19T11:25:39.332Z,5.20
2023-04-19T11:26:43.147Z,5.15
2023-04-19T11:27:47.236Z,9.35
2023-04-19T11:28:50.188Z,6.15
2023-04-19T11:29:52.240Z,4.53
2023-04-19T11:30:55.726Z,4.97
2023-04-19T11:32:00.471Z,4.75
2023-04-19T11:33:02.742Z,6.45
2023-04-19T11:34:04.890Z,5.40
2023-04-19T11:35:08.268Z,4.88
2023-04-19T11:36:13.003Z,4.47
2023-04-19T11:37:15.246Z,6.90
2023-04-19T11:38:17.257Z,6.05
2023-04-19T11:39:19.541Z,4.32
2023-04-19T11:40:23.642Z,5.82
2023-04-19T11:41:25.953Z,4.30
2023-04-19T11:42:28.320Z,4.63
2023-04-19T11:43:35.064Z,5.22
2023-04-19T11:44:37.390Z,3.58
2023-04-19T11:45:40.376Z,2.83
2023-04-19T11:47:51.431Z,4.20
2023-04-19T11:48:54.397Z,2.45
2023-04-19T11:49:56.827Z,4.05
2023-04-19T11:50:59.643Z,3.28
2023-04-19T11:53:12.132Z,2.72
2023-04-19T11:54:17.007Z,3.50
2023-04-19T11:55:19.572Z,3.65
2023-04-19T11:56:21.569Z,2.08
2023-04-19T11:57:32.920Z,1.75
2023-04-19T11:58:45.501Z,3.90
2023-04-19T12:00:12.598Z,3.08
2023-04-19T12:01:22.310Z,1.50
2023-04-19T12:02:24.672Z,1.77
2023-04-19T12:03:27.301Z,2.28
2023-04-19T12:04:29.722Z,1.90
2023-04-19T12:05:32.079Z,2.55
2023-04-19T12:06:34.443Z,2.00
2023-04-19T12:07:36.812Z,1.77
2023-04-19T12:08:47.632Z,2.40
2023-04-19T12:09:49.659Z,1.67
2023-04-19T12:10:58.965Z,2.22
2023-04-19T12:13:17.554Z,1.33
2023-04-19T12:14:22.381Z,2.83
2023-04-19T12:15:40.885Z,2.10
2023-04-19T12:16:45.256Z,2.10
2023-04-19T12:18:02.194Z,1.42
2023-04-19T12:19:23.301Z,2.22
2023-04-19T12:20:35.892Z,1.48
2023-04-19T12:21:37.776Z,1.50
2023-04-19T12:22:39.681Z,2.45
2023-04-19T12:23:41.735Z,2.47
2023-04-19T12:24:44.144Z,2.45
2023-04-19T12:25:48.304Z,1.52
2023-04-19T12:26:57.955Z,1.77
2023-04-19T12:28:03.187Z,1.55
2023-04-19T12:29:06.032Z,1.58
2023-04-19T12:30:09.184Z,3.92
2023-04-19T12:31:11.354Z,3.85
2023-04-19T12:32:16.126Z,1.70
2023-04-19T12:33:18.534Z,1.88
2023-04-19T12:34:21.105Z,1.85
2023-04-19T12:35:24.666Z,1.63
2023-04-19T12:36:26.629Z,1.20
2023-04-19T12:37:28.979Z,2.03
2023-04-19T12:38:30.873Z,2.63
2023-04-19T12:39:32.832Z,2.10
2023-04-19T12:40:34.723Z,1.60
2023-04-19T12:41:36.975Z,3.00
2023-04-19T12:42:38.909Z,3.70
2023-04-19T12:43:41.192Z,1.65
2023-04-19T12:44:43.114Z,2.08
2023-04-19T12:45:45.718Z,1.20
2023-04-19T12:46:47.721Z,2.28
2023-04-19T12:47:49.822Z,1.65
2023-04-19T12:48:51.888Z,1.85
2023-04-19T12:49:56.235Z,4.95
2023-04-19T12:50:58.147Z,1.65
2023-04-19T12:52:00.124Z,1.67
2023-04-19T12:53:02.092Z,3.88
2023-04-19T12:54:04.483Z,1.95
2023-04-19T12:55:07.300Z,2.00
2023-04-19T12:57:11.091Z,5.35
2023-04-19T12:58:21.376Z,3.35
2023-04-19T12:59:23.980Z,2.85
2023-04-19T13:00:26.228Z,3.88
2023-04-19T13:01:28.333Z,3.70
2023-04-19T13:02:31.104Z,4.43
2023-04-19T13:03:36.698Z,3.95
2023-04-19T13:04:38.883Z,3.28
2023-04-19T13:05:41.212Z,2.63
2023-04-19T13:06:43.484Z,5.25
2023-04-19T13:07:45.495Z,2.90
2023-04-19T13:08:48.088Z,4.03
2023-04-19T13:09:50.235Z,4.07
2023-04-19T13:10:52.470Z,3.92
2023-04-19T13:11:58.101Z,3.55
2023-04-19T13:13:00.862Z,2.83
2023-04-19T13:14:03.047Z,2.72
2023-04-19T13:15:05.921Z,3.17
2023-04-19T13:16:08.257Z,3.50
2023-04-19T13:17:10.244Z,2.97
2023-04-19T13:18:12.186Z,5.10
2023-04-19T13:19:14.441Z,6.00
2023-04-19T13:20:16.465Z,3.22
2023-04-19T13:21:18.600Z,3.30
2023-04-19T13:22:21.397Z,4.40
2023-04-19T13:23:23.699Z,3.60
2023-04-19T13:24:25.860Z,3.17
2023-04-19T13:25:27.777Z,3.60
2023-04-19T13:26:29.755Z,5.78
2023-04-19T13:27:32.248Z,4.03
2023-04-19T13:28:36.071Z,4.97
2023-04-19T13:29:38.021Z,3.47
2023-04-19T13:30:40.001Z,4.28
2023-04-19T13:31:43.851Z,4.40
2023-04-19T13:32:46.075Z,4.57
2023-04-19T13:33:48.076Z,5.85
2023-04-19T13:34:49.972Z,4.65
2023-04-19T13:35:52.252Z,4.57
2023-04-19T13:36:54.200Z,4.35
2023-04-19T13:37:56.754Z,8.35
2023-04-19T13:38:58.652Z,6.47
2023-04-19T13:40:14.741Z,5.30
2023-04-19T13:41:21.070Z,4.53
2023-04-19T13:42:23.672Z,4.35
2023-04-19T13:43:25.937Z,6.45
2023-04-19T13:44:28.917Z,6.22
2023-04-19T13:45:30.844Z,4.85
2023-04-19T13:46:33.099Z,4.63
2023-04-19T13:47:35.231Z,6.00
2023-04-19T13:48:37.712Z,4.97
2023-04-19T13:49:39.710Z,5.32
2023-04-19T13:50:41.837Z,4.60
2023-04-19T13:51:50.170Z,5.30
2023-04-19T13:52:53.271Z,4.88
2023-04-19T13:53:55.164Z,5.03
2023-04-19T13:54:57.033Z,5.38
2023-04-19T13:55:59.346Z,6.15
2023-04-19T13:57:01.663Z,5.22
2023-04-19T13:58:03.698Z,5.32
2023-04-19T13:59:05.593Z,5.28
2023-04-19T14:00:08.623Z,4.07
2023-04-19T14:01:11.077Z,3.55
2023-04-19T14:02:13.040Z,4.40
2023-04-19T14:03:15.277Z,6.35
2023-04-19T14:04:18.019Z,3.58
2023-04-19T14:05:20.614Z,5.80
2023-04-19T14:06:22.814Z,5.53
2023-04-19T14:07:25.000Z,6.25
2023-04-19T14:08:28.462Z,7.20
2023-04-19T14:09:30.765Z,5.70
2023-04-19T14:10:32.821Z,4.68
2023-04-19T14:11:34.850Z,5.07
2023-04-19T14:12:36.932Z,5.03
2023-04-19T14:13:39.340Z,4.90
2023-04-19T14:14:41.223Z,6.10
2023-04-19T14:15:43.229Z,4.43
2023-04-19T14:16:45.152Z,4.07
2023-04-19T14:17:47.554Z,4.53
2023-04-19T14:18:49.453Z,5.60
2023-04-19T14:19:51.427Z,7.10
2023-04-19T14:20:53.507Z,4.63
2023-04-19T14:21:55.854Z,5.47
2023-04-19T14:23:00.421Z,5.60
2023-04-19T14:24:02.389Z,8.10
2023-04-19T14:25:04.740Z,5.43
2023-04-19T14:26:07.751Z,3.85
2023-04-19T14:27:11.477Z,4.53
2023-04-19T14:28:13.803Z,9.20
2023-04-19T14:29:15.959Z,4.15
2023-04-19T14:30:18.535Z,4.13
2023-04-19T14:31:20.942Z,5.50
2023-04-19T14:32:26.664Z,5.03